Terminal Aerodrome Forecast
Issued by NWS Lubbock, TX

Home | Current Version | Previous Version | Text Only | Print | Product List | Glossary On
Versions: 1 2 3 4 5 6 7 8 9 10 11 12 13 14 15 16 17 18 19 20 21 22 23
375
FTUS44 KLUB 040543 AAA
TAFLBB
TAF AMD
KLBB 040543Z 0406/0506 04006KT 6SM -DZ BR SCT005 OVC012
      TEMPO 0406/0408 BKN005 OVC012
     FM041500 03011KT 6SM BR SCT005 BKN010
     FM041700 03011KT P6SM FEW025 SCT200
     FM042200 05006KT P6SM BKN200=

USA.gov is the U.S. government's official web portal to all federal, state and local government web resources and services.